createdAt,value
2022-09-13T00:00:42.011Z,4.47
2022-09-13T00:03:51.602Z,5.38
2022-09-13T00:06:52.445Z,5.13
2022-09-13T00:09:38.380Z,4.75
2022-09-13T00:12:06.404Z,3.85
2022-09-13T00:14:43.489Z,4.65
2022-09-13T00:19:54.845Z,4.57
2022-09-13T00:22:28.840Z,5.13
2022-09-13T00:24:56.118Z,4.85
2022-09-13T00:27:23.611Z,4.85
2022-09-13T00:29:51.831Z,4.70
2022-09-13T00:32:21.996Z,4.20
2022-09-13T00:34:49.057Z,4.53
2022-09-13T00:37:17.521Z,4.43
2022-09-13T00:39:56.634Z,4.75
2022-09-13T00:43:23.734Z,4.50
2022-09-13T00:54:24.369Z,4.50
2022-09-13T00:57:02.416Z,4.50
2022-09-13T01:00:11.762Z,4.03
2022-09-13T01:03:20.880Z,4.60
2022-09-13T01:05:57.162Z,4.50
2022-09-13T01:08:38.443Z,4.60
2022-09-13T01:11:18.933Z,4.40
2022-09-13T01:13:48.027Z,4.35
2022-09-13T01:16:19.565Z,4.30
2022-09-13T01:18:50.278Z,4.15
2022-09-13T01:22:08.629Z,4.22
2022-09-13T01:25:17.868Z,4.15
2022-09-13T01:28:44.669Z,4.70
2022-09-13T01:31:45.099Z,4.70
2022-09-13T01:35:11.131Z,4.35
2022-09-13T01:38:00.636Z,4.05
2022-09-13T01:41:13.005Z,4.20
2022-09-13T01:44:19.469Z,4.03
2022-09-13T01:47:26.799Z,4.32
2022-09-13T01:50:41.065Z,4.22
2022-09-13T01:54:04.468Z,4.32
2022-09-13T01:57:09.971Z,4.85
2022-09-13T02:00:18.931Z,4.70
2022-09-13T02:03:29.737Z,4.57
2022-09-13T02:06:56.816Z,4.72
2022-09-13T02:09:35.513Z,4.40
2022-09-13T02:12:18.557Z,4.70
2022-09-13T02:14:56.519Z,4.20
2022-09-13T02:17:38.295Z,4.57
2022-09-13T02:20:22.451Z,4.43
2022-09-13T02:23:00.749Z,4.22
2022-09-13T02:25:32.761Z,4.60
2022-09-13T02:28:16.056Z,4.38
2022-09-13T02:30:55.971Z,4.80
2022-09-13T02:33:36.468Z,4.53
2022-09-13T02:36:15.607Z,4.97
2022-09-13T02:38:55.841Z,5.00
2022-09-13T02:41:57.917Z,4.75
2022-09-13T02:44:44.260Z,4.68
2022-09-13T02:48:10.332Z,5.05
2022-09-13T02:51:08.446Z,4.60
2022-09-13T02:53:53.398Z,5.00
2022-09-13T02:56:42.415Z,4.72
2022-09-13T03:16:30.834Z,5.18
2022-09-13T03:19:20.755Z,5.15
2022-09-13T03:27:03.437Z,5.05
2022-09-13T03:33:58.198Z,4.63
2022-09-13T03:36:55.285Z,5.35
2022-09-13T03:39:53.071Z,5.13
2022-09-13T03:42:37.117Z,5.03
2022-09-13T03:45:08.958Z,4.68
2022-09-13T03:47:40.242Z,5.22
2022-09-13T03:50:10.879Z,5.20
2022-09-13T03:52:39.787Z,4.82
2022-09-13T03:55:09.583Z,4.60
2022-09-13T03:57:37.756Z,5.53
2022-09-13T04:00:06.921Z,4.45
2022-09-13T04:02:41.408Z,4.97
2022-09-13T04:05:09.095Z,4.82
2022-09-13T04:07:36.509Z,4.97
2022-09-13T04:10:08.803Z,5.30
2022-09-13T04:12:41.310Z,4.95
2022-09-13T04:15:10.082Z,4.90
2022-09-13T04:17:37.232Z,5.30
2022-09-13T04:20:05.980Z,5.45
2022-09-13T04:22:33.688Z,5.10
2022-09-13T04:25:02.620Z,5.00
2022-09-13T04:27:35.739Z,4.70
2022-09-13T04:30:31.272Z,5.38
2022-09-13T04:33:00.057Z,4.95
2022-09-13T04:35:27.960Z,5.07
2022-09-13T04:37:58.668Z,5.07
2022-09-13T04:40:25.972Z,5.28
2022-09-13T04:42:53.084Z,5.05
2022-09-13T04:45:20.290Z,5.95
2022-09-13T04:47:57.696Z,5.07
2022-09-13T04:50:25.943Z,5.78
2022-09-13T04:52:57.233Z,5.70
2022-09-13T04:55:27.674Z,5.43
2022-09-13T04:57:58.124Z,5.60
2022-09-13T05:00:26.244Z,5.40
2022-09-13T05:02:57.731Z,5.82
2022-09-13T05:05:29.476Z,5.30
2022-09-13T05:10:30.240Z,4.40
2022-09-13T05:12:59.803Z,5.55
2022-09-13T05:15:27.499Z,5.55
2022-09-13T05:21:37.036Z,5.43
2022-09-13T05:45:24.048Z,5.68
2022-09-13T05:48:19.815Z,5.70
2022-09-13T05:50:58.294Z,4.75
2022-09-13T05:53:26.022Z,4.90
2022-09-13T05:56:02.484Z,4.40
2022-09-13T05:59:19.685Z,5.05
2022-09-13T06:04:54.082Z,5.95
2022-09-13T06:14:55.312Z,4.85
2022-09-13T06:17:22.820Z,4.57
2022-09-13T06:19:50.268Z,4.88
2022-09-13T06:22:37.093Z,5.20
2022-09-13T06:25:21.979Z,5.07
2022-09-13T06:28:05.565Z,4.85
2022-09-13T06:30:42.285Z,5.00
2022-09-13T06:33:21.306Z,4.88
2022-09-13T06:36:14.866Z,4.33
2022-09-13T06:38:43.439Z,4.57
2022-09-13T07:08:06.382Z,3.97
2022-09-13T07:11:30.108Z,4.55
2022-09-13T07:13:59.863Z,4.25
2022-09-13T07:16:38.203Z,4.13
2022-09-13T07:19:16.387Z,3.97
2022-09-13T07:21:47.785Z,4.60
2022-09-13T07:24:15.319Z,5.40
2022-09-13T07:26:42.917Z,4.60
2022-09-13T07:29:16.305Z,4.18
2022-09-13T07:31:47.673Z,3.75
2022-09-13T07:34:21.697Z,4.03
2022-09-13T07:36:50.308Z,4.07
2022-09-13T07:39:22.961Z,4.18
2022-09-13T07:41:52.214Z,4.13
2022-09-13T07:44:19.832Z,3.75
2022-09-13T07:47:27.580Z,4.07
2022-09-13T07:51:10.368Z,3.75
2022-09-13T07:53:40.663Z,4.40
2022-09-13T07:56:17.063Z,4.60
2022-09-13T07:58:49.451Z,4.63
2022-09-13T08:01:25.599Z,4.43
2022-09-13T08:03:56.891Z,4.95
2022-09-13T08:06:28.796Z,4.78
2022-09-13T08:08:57.734Z,4.93
2022-09-13T08:11:40.650Z,4.53
2022-09-13T08:14:14.055Z,5.07
2022-09-13T08:16:41.825Z,5.70
2022-09-13T08:19:35.136Z,6.95
2022-09-13T08:38:02.228Z,5.47
2022-09-13T08:40:41.983Z,5.35
2022-09-13T08:43:41.724Z,5.88
2022-09-13T08:46:39.259Z,6.45
2022-09-13T09:11:27.820Z,5.25
2022-09-13T09:18:12.144Z,5.80
2022-09-13T09:24:28.260Z,4.93
2022-09-13T09:26:58.681Z,4.80
2022-09-13T09:29:33.268Z,4.85
2022-09-13T09:32:31.868Z,5.68
2022-09-13T09:36:30.700Z,5.20
2022-09-13T09:39:34.126Z,4.65
2022-09-13T09:42:08.861Z,4.70
2022-09-13T09:44:44.585Z,4.95
2022-09-13T09:47:31.822Z,5.07
2022-09-13T09:50:20.341Z,5.65
2022-09-13T09:53:25.608Z,5.10
2022-09-13T09:56:29.188Z,4.93
2022-09-13T09:58:59.812Z,4.70
2022-09-13T10:01:33.109Z,3.50
2022-09-13T10:04:23.146Z,3.10
2022-09-13T10:25:14.452Z,2.37
2022-09-13T10:28:00.764Z,2.25
2022-09-13T10:30:48.634Z,2.50
2022-09-13T10:33:35.600Z,2.10
2022-09-13T10:36:41.185Z,2.10
2022-09-13T10:39:19.324Z,2.35
2022-09-13T10:41:58.803Z,2.28
2022-09-13T10:44:40.214Z,5.18
2022-09-13T10:47:19.431Z,6.63
2022-09-13T10:50:02.323Z,2.38
2022-09-13T10:52:53.694Z,1.98
2022-09-13T10:55:37.385Z,3.40
2022-09-13T10:58:08.110Z,1.90
2022-09-13T11:01:06.155Z,1.83
2022-09-13T11:04:28.353Z,1.90
2022-09-13T11:07:38.399Z,1.77
2022-09-13T11:10:57.124Z,1.90
2022-09-13T11:22:58.319Z,1.30
2022-09-13T11:25:51.939Z,1.60
2022-09-13T11:28:47.056Z,1.30
2022-09-13T11:31:56.531Z,1.20
2022-09-13T11:34:44.259Z,1.90
2022-09-13T11:37:38.357Z,1.50
2022-09-13T11:40:33.113Z,1.50
2022-09-13T11:43:40.734Z,1.60
2022-09-13T11:46:42.479Z,1.40
2022-09-13T11:49:46.348Z,1.73
2022-09-13T11:52:51.637Z,1.65
2022-09-13T11:55:32.804Z,1.50
2022-09-13T11:58:15.191Z,1.98
2022-09-13T12:00:57.609Z,1.85
2022-09-13T12:05:22.225Z,1.77
2022-09-13T12:08:00.439Z,2.00
2022-09-13T12:12:06.004Z,1.70
2022-09-13T12:15:00.472Z,1.73
2022-09-13T12:21:16.008Z,1.92
2022-09-13T12:24:01.787Z,1.70
2022-09-13T12:31:00.028Z,1.40
2022-09-13T12:33:29.565Z,1.15
2022-09-13T12:36:32.443Z,1.27
2022-09-13T12:39:32.679Z,1.50
2022-09-13T12:42:46.747Z,1.48
2022-09-13T12:46:27.191Z,1.75
2022-09-13T12:49:37.075Z,2.08
2022-09-13T12:52:44.668Z,1.38
2022-09-13T12:55:48.974Z,1.52
2022-09-13T12:58:57.453Z,1.40
2022-09-13T13:01:32.771Z,1.33
2022-09-13T13:04:38.126Z,1.48
2022-09-13T13:07:20.315Z,1.40
2022-09-13T13:12:44.616Z,1.52
2022-09-13T13:15:24.283Z,1.63
2022-09-13T13:17:57.331Z,1.50
2022-09-13T13:21:08.694Z,1.27
2022-09-13T13:23:40.933Z,1.35
2022-09-13T13:26:24.173Z,1.20
2022-09-13T13:29:05.599Z,1.33
2022-09-13T13:31:37.214Z,1.38
2022-09-13T13:34:11.908Z,1.30
2022-09-13T13:36:43.470Z,1.25
2022-09-13T13:39:28.646Z,2.00
2022-09-13T13:42:03.597Z,1.20
2022-09-13T13:44:40.530Z,1.42
2022-09-13T13:47:13.548Z,1.20
2022-09-13T13:54:41.038Z,1.33
2022-09-13T14:17:15.354Z,1.40
2022-09-13T14:19:54.424Z,1.42
2022-09-13T14:22:27.681Z,1.40
2022-09-13T14:24:59.146Z,1.10
2022-09-13T14:34:32.557Z,1.70
2022-09-13T14:37:16.118Z,1.67
2022-09-13T14:40:18.884Z,1.60
2022-09-13T14:42:52.005Z,1.35
2022-09-13T14:45:31.021Z,1.48
2022-09-13T15:05:06.460Z,1.65
2022-09-13T15:11:31.424Z,1.85
2022-09-13T15:17:15.750Z,1.80
2022-09-13T15:20:12.123Z,1.63
2022-09-13T15:25:29.101Z,1.92
2022-09-13T15:28:26.807Z,1.85
2022-09-13T15:33:49.399Z,1.60
2022-09-13T15:36:31.554Z,1.73
2022-09-13T15:39:27.069Z,1.42
2022-09-13T15:42:00.629Z,1.58
2022-09-13T15:44:33.175Z,1.40
2022-09-13T15:47:06.799Z,1.50
2022-09-13T15:52:20.502Z,1.73
2022-09-13T15:54:55.534Z,1.55
2022-09-13T15:57:27.646Z,1.50
2022-09-13T16:08:53.274Z,1.70
2022-09-13T16:11:25.962Z,1.50
2022-09-13T16:17:09.150Z,1.42
2022-09-13T16:28:26.208Z,1.40
2022-09-13T16:30:56.608Z,1.60
2022-09-13T16:33:28.678Z,1.70
2022-09-13T16:36:02.455Z,1.77
2022-09-13T16:41:14.760Z,1.60
2022-09-13T16:43:45.626Z,1.65
2022-09-13T16:46:32.822Z,1.50
2022-09-13T16:49:04.549Z,1.75
2022-09-13T16:51:35.915Z,1.58
2022-09-13T16:54:06.089Z,1.63
2022-09-13T16:56:35.168Z,2.00
2022-09-13T16:59:07.761Z,1.80
2022-09-13T17:01:36.776Z,1.92
2022-09-13T17:04:11.973Z,1.65
2022-09-13T17:06:43.779Z,1.90
2022-09-13T17:09:12.336Z,1.80
2022-09-13T17:11:44.505Z,3.15
2022-09-13T17:14:18.135Z,2.38
2022-09-13T17:16:50.856Z,2.05
2022-09-13T17:19:27.768Z,2.08
2022-09-13T17:22:05.922Z,2.00
2022-09-13T17:49:52.125Z,1.80
2022-09-13T18:16:01.363Z,2.63
2022-09-13T18:18:30.337Z,1.85
2022-09-13T18:20:59.083Z,2.33
2022-09-13T18:23:33.138Z,2.17
2022-09-13T18:26:10.683Z,2.55
2022-09-13T18:28:39.647Z,2.40
2022-09-13T18:31:16.227Z,2.80
2022-09-13T18:33:46.703Z,2.38
2022-09-13T18:36:27.875Z,2.70
2022-09-13T18:38:57.853Z,2.60
2022-09-13T18:41:30.453Z,2.13
2022-09-13T18:43:59.706Z,2.63
2022-09-13T18:46:32.554Z,2.03
2022-09-13T18:49:08.340Z,2.65
2022-09-13T18:51:43.944Z,2.30
2022-09-13T18:54:18.855Z,2.42
2022-09-13T18:56:48.308Z,2.30
2022-09-13T18:59:16.044Z,2.50
2022-09-13T19:01:45.932Z,2.55
2022-09-13T19:04:20.999Z,2.60
2022-09-13T19:06:55.526Z,2.55
2022-09-13T19:09:24.995Z,2.45
2022-09-13T19:11:55.978Z,2.45
2022-09-13T19:14:48.690Z,2.17
2022-09-13T19:17:16.957Z,2.03
2022-09-13T19:19:44.537Z,2.33
2022-09-13T19:22:12.905Z,2.15
2022-09-13T19:24:40.776Z,2.30
2022-09-13T19:27:14.338Z,2.60
2022-09-13T19:32:43.257Z,2.60
2022-09-13T19:52:08.895Z,2.60
2022-09-13T19:54:40.531Z,2.40
2022-09-13T19:57:10.991Z,2.80
2022-09-13T20:06:16.065Z,2.88
2022-09-13T20:08:46.596Z,2.58
2022-09-13T20:11:18.646Z,3.47
2022-09-13T20:13:58.832Z,3.08
2022-09-13T20:16:36.682Z,2.87
2022-09-13T20:20:06.501Z,3.13
2022-09-13T20:22:40.617Z,2.72
2022-09-13T20:25:51.271Z,3.30
2022-09-13T20:28:48.822Z,3.08
2022-09-13T20:32:07.646Z,3.05
2022-09-13T20:37:36.197Z,3.35
2022-09-13T20:40:19.366Z,3.40
2022-09-13T20:43:35.010Z,3.58
2022-09-13T20:46:15.223Z,4.55
2022-09-13T21:16:56.949Z,4.50
2022-09-13T21:19:26.862Z,4.95
2022-09-13T21:37:31.762Z,4.70
2022-09-13T21:40:07.247Z,4.18
2022-09-13T21:42:56.328Z,4.47
2022-09-13T21:45:28.445Z,4.35
2022-09-13T21:47:55.912Z,4.80
2022-09-13T21:50:23.625Z,4.60
2022-09-13T21:52:51.476Z,4.10
2022-09-13T21:55:48.244Z,4.95
2022-09-13T21:59:33.832Z,4.50
2022-09-13T22:03:17.111Z,5.30
2022-09-13T22:06:38.553Z,5.05
2022-09-13T22:16:00.401Z,4.47
2022-09-13T22:19:15.172Z,4.78
2022-09-13T22:54:57.600Z,5.13
2022-09-13T22:57:33.090Z,5.40
2022-09-13T23:00:10.032Z,5.78
2022-09-13T23:02:48.207Z,6.13
2022-09-13T23:05:17.376Z,5.28
2022-09-13T23:08:43.192Z,5.90
2022-09-13T23:21:40.037Z,5.60
2022-09-13T23:42:48.987Z,5.40
2022-09-13T23:50:07.876Z,5.43
2022-09-13T23:53:04.389Z,4.90
